Time;durP1;ratioP1;P1;durP2;ratioP2;P2;SDS_P1;SDS_P2;PMS_P1;PMS_P2;Temp;Humidity;BMP_temperature;BMP_pressure;BME280_temperature;BME280_humidity;BME280_pressure;Samples;Min_cycle;Max_cycle;Signal;HPM_P1;HPM_P2
2023/09/03 00:01:01;;;;;;;;;;;;;;;15.20;51.67;96335.94;4974304;28;19973;-67
2023/09/03 00:03:26;;;;;;;;;;;;;;;15.07;53.20;96331.28;4974555;28;20175;-69
2023/09/03 00:05:51;;;;;;;;;;;;;;;15.07;51.68;96333.97;4976998;28;19991;-69
2023/09/03 00:08:17;;;;;;;;;;;;;;;15.16;51.67;96340.03;4974389;28;19965;-69
2023/09/03 00:10:42;;;;;;;;;;;;;;;15.19;51.64;96328.09;4974594;28;20338;-69
2023/09/03 00:13:07;;;;;;;;;;;;;;;15.25;50.64;96321.97;4974256;28;19956;-69
2023/09/03 00:15:32;;;;;;;;;;;;;;;15.22;51.77;96315.13;4974436;28;20027;-69
2023/09/03 00:17:58;;;;;;;;;;;;;;;15.21;50.41;96318.84;4974345;28;20308;-68
2023/09/03 00:20:23;;;;;;;;;;;;;;;15.16;50.80;96310.53;4974227;28;19931;-71
2023/09/03 00:22:48;;;;;;;;;;;;;;;15.15;51.18;96310.72;4976283;28;20475;-71
2023/09/03 00:25:14;;;;;;;;;;;;;;;15.05;52.81;96314.53;4974411;28;20030;-71
2023/09/03 00:27:39;;;;;;;;;;;;;;;15.08;50.88;96314.16;4974987;28;19953;-71
2023/09/03 00:30:04;;;;;;;;;;;;;;;15.10;50.72;96308.63;4975269;28;20455;-71
2023/09/03 00:32:29;;;;;;;;;;;;;;;15.07;51.15;96311.69;4974257;28;20648;-71
2023/09/03 00:34:55;;;;;;;;;;;;;;;15.07;50.82;96311.69;4974642;28;19999;-71
2023/09/03 00:37:20;;;;;;;;;;;;;;;15.04;51.78;96312.06;4974487;28;20471;-71
2023/09/03 00:39:45;;;;;;;;;;;;;;;15.01;51.03;96307.06;4969472;28;20332;-71
2023/09/03 00:42:10;;;;;;;;;;;;;;;14.98;51.04;96303.75;4974031;28;19995;-71
2023/09/03 00:44:36;;;;;;;;;;;;;;;14.90;53.35;96295.00;4974538;28;20017;-71
2023/09/03 00:47:01;;;;;;;;;;;;;;;14.82;53.82;96304.00;4971176;28;19958;-71
2023/09/03 00:49:26;;;;;;;;;;;;;;;14.83;53.17;96306.44;4973765;28;20328;-71
2023/09/03 00:51:52;;;;;;;;;;;;;;;14.84;51.76;96309.97;4973816;28;20420;-71
2023/09/03 00:54:18;;;;;;;;;;;;;;;14.68;54.45;96308.31;4984796;28;19935;-71
2023/09/03 00:56:43;;;;;;;;;;;;;;;14.77;53.72;96314.44;4974309;28;19964;-71
2023/09/03 00:59:08;;;;;;;;;;;;;;;14.71;54.49;96321.34;4973057;28;19972;-71
2023/09/03 01:01:35;;;;;;;;;;;;;;;14.57;55.07;96321.19;4973867;28;19930;-71
2023/09/03 01:04:01;;;;;;;;;;;;;;;14.64;54.05;96317.72;4953261;28;20078;-71
2023/09/03 01:06:26;;;;;;;;;;;;;;;14.75;52.82;96322.66;4977899;28;20474;-71
2023/09/03 01:08:52;;;;;;;;;;;;;;;14.56;53.37;96321.38;4972669;28;20168;-71
2023/09/03 01:11:24;;;;;;;;;;;;;;;14.62;53.94;96325.16;4973035;28;19918;-71
2023/09/03 01:13:52;;;;;;;;;;;;;;;14.70;53.52;96315.16;4968013;28;20387;-71
2023/09/03 01:16:18;;;;;;;;;;;;;;;14.75;52.33;96319.16;4971937;28;19964;-70
2023/09/03 01:18:44;;;;;;;;;;;;;;;14.77;52.51;96312.59;4972930;28;20036;-71
2023/09/03 01:21:16;;;;;;;;;;;;;;;14.81;52.03;96321.06;4973032;28;20575;-71
2023/09/03 01:23:47;;;;;;;;;;;;;;;14.75;52.53;96324.50;4965620;28;20401;-71
2023/09/03 01:26:24;;;;;;;;;;;;;;;14.71;51.38;96324.84;4971334;28;19920;-71
2023/09/03 01:28:49;;;;;;;;;;;;;;;14.72;51.42;96337.22;4970886;28;19952;-71
2023/09/03 01:31:15;;;;;;;;;;;;;;;14.67;51.93;96344.16;4958476;28;19928;-71
2023/09/03 01:33:41;;;;;;;;;;;;;;;14.51;53.53;96345.22;4973818;28;19976;-71
2023/09/03 01:36:06;;;;;;;;;;;;;;;14.51;54.03;96350.56;4967460;28;20204;-71
2023/09/03 01:38:32;;;;;;;;;;;;;;;14.58;52.18;96354.13;4970834;28;20456;-71
2023/09/03 01:40:59;;;;;;;;;;;;;;;14.50;52.51;96359.59;4980079;28;19922;-73
2023/09/03 01:43:24;;;;;;;;;;;;;;;14.44;52.05;96348.63;4971570;28;19996;-73
2023/09/03 01:46:28;;;;;;;;;;;;;;;14.45;52.33;96352.94;4978590;28;19952;-73
2023/09/03 01:48:53;;;;;;;;;;;;;;;14.48;51.34;96362.47;4950745;28;20197;-73
2023/09/03 01:51:22;;;;;;;;;;;;;;;14.25;52.72;96363.41;4951581;28;20463;-73
2023/09/03 01:53:50;;;;;;;;;;;;;;;14.31;51.83;96367.19;4961361;28;20006;-73
2023/09/03 01:56:15;;;;;;;;;;;;;;;14.30;52.95;96365.50;4966011;28;20025;-73
2023/09/03 01:58:41;;;;;;;;;;;;;;;14.23;51.85;96364.56;4966229;28;19928;-73
2023/09/03 02:01:06;;;;;;;;;;;;;;;14.18;52.27;96357.91;4972510;28;20276;-73
2023/09/03 02:03:31;;;;;;;;;;;;;;;14.15;52.31;96355.63;4970530;28;19963;-72
2023/09/03 02:05:56;;;;;;;;;;;;;;;14.10;52.57;96362.53;4971069;28;20540;-73
2023/09/03 02:08:22;;;;;;;;;;;;;;;14.09;52.52;96359.03;4970231;28;19964;-73
2023/09/03 02:10:47;;;;;;;;;;;;;;;14.06;52.31;96365.59;4966474;28;19928;-72
2023/09/03 02:13:12;;;;;;;;;;;;;;;14.05;52.58;96355.06;4968512;28;20088;-72
2023/09/03 02:15:37;;;;;;;;;;;;;;;14.04;52.42;96353.41;4970918;28;20025;-72
2023/09/03 02:18:03;;;;;;;;;;;;;;;14.05;52.06;96355.88;4965936;28;20528;-72
2023/09/03 02:20:28;;;;;;;;;;;;;;;14.04;52.05;96345.38;4973426;28;19967;-72
2023/09/03 02:22:53;;;;;;;;;;;;;;;14.01;51.76;96349.22;4973612;28;19947;-72
2023/09/03 02:25:18;;;;;;;;;;;;;;;13.97;51.99;96355.94;4973603;28;19928;-72
2023/09/03 02:27:44;;;;;;;;;;;;;;;13.94;51.81;96357.16;4972607;28;20048;-72
2023/09/03 02:30:09;;;;;;;;;;;;;;;13.90;52.06;96350.50;4973879;28;20020;-72
2023/09/03 02:32:35;;;;;;;;;;;;;;;13.87;52.47;96363.38;4971806;28;19953;-72
2023/09/03 02:35:00;;;;;;;;;;;;;;;13.78;53.00;96362.63;4973575;28;19977;-72
2023/09/03 02:37:25;;;;;;;;;;;;;;;13.73;53.15;96368.50;4973113;28;20040;-72
2023/09/03 02:39:50;;;;;;;;;;;;;;;13.79;52.93;96369.63;4967830;28;20328;-72
2023/09/03 02:42:16;;;;;;;;;;;;;;;13.85;52.92;96362.72;4971605;28;20032;-72
2023/09/03 02:44:41;;;;;;;;;;;;;;;13.89;53.43;96372.94;4973249;28;20038;-72
2023/09/03 02:47:06;;;;;;;;;;;;;;;13.88;52.90;96371.28;4972491;28;19949;-72
2023/09/03 02:49:31;;;;;;;;;;;;;;;13.90;52.91;96360.38;4973620;28;20429;-72
2023/09/03 02:51:56;;;;;;;;;;;;;;;13.93;52.61;96368.88;4973117;28;19972;-72
2023/09/03 02:54:22;;;;;;;;;;;;;;;13.94;52.28;96359.81;4977205;28;19993;-72
2023/09/03 02:56:47;;;;;;;;;;;;;;;13.98;52.28;96367.50;4972260;28;19953;-72
2023/09/03 02:59:12;;;;;;;;;;;;;;;13.99;52.29;96367.31;4975805;28;20356;-72
2023/09/03 03:01:37;;;;;;;;;;;;;;;13.99;51.93;96379.84;4984314;28;19995;-72
2023/09/03 03:04:03;;;;;;;;;;;;;;;13.95;51.43;96374.88;4990608;28;19960;-72
2023/09/03 03:06:28;;;;;;;;;;;;;;;13.94;51.86;96378.56;4978656;28;19922;-72
2023/09/03 03:08:54;;;;;;;;;;;;;;;13.92;51.63;96382.44;4976663;28;19970;-72
2023/09/03 03:11:19;;;;;;;;;;;;;;;13.92;51.89;96379.75;4977042;28;20373;-72
2023/09/03 03:13:44;;;;;;;;;;;;;;;13.93;51.82;96382.25;4976676;28;20341;-72
2023/09/03 03:16:10;;;;;;;;;;;;;;;13.90;51.85;96374.59;4976447;28;20160;-72
2023/09/03 03:18:36;;;;;;;;;;;;;;;13.92;51.90;96383.28;4977071;28;20074;-72
2023/09/03 03:21:18;;;;;;;;;;;;;;;13.92;52.33;96387.78;4979164;28;19991;-73
2023/09/03 03:23:47;;;;;;;;;;;;;;;13.72;53.51;96390.94;4975710;28;19956;-73
2023/09/03 03:26:12;;;;;;;;;;;;;;;13.67;53.09;96396.00;4976570;28;19926;-73
2023/09/03 03:28:38;;;;;;;;;;;;;;;13.73;52.67;96391.78;4976252;28;19968;-72
2023/09/03 03:31:10;;;;;;;;;;;;;;;13.77;52.33;96393.06;4975722;28;20037;-73
2023/09/03 03:33:35;;;;;;;;;;;;;;;13.78;52.37;96397.41;4975883;28;19956;-72
2023/09/03 03:36:01;;;;;;;;;;;;;;;13.80;52.24;96403.41;4974126;28;20068;-73
2023/09/03 03:38:26;;;;;;;;;;;;;;;13.81;52.13;96405.09;4975886;28;19926;-73
2023/09/03 03:40:51;;;;;;;;;;;;;;;13.79;52.13;96391.88;4970507;28;20542;-72
2023/09/03 03:43:17;;;;;;;;;;;;;;;13.79;52.16;96391.03;4977031;28;20477;-72
2023/09/03 03:45:42;;;;;;;;;;;;;;;13.79;51.97;96388.34;4975843;28;19995;-73
2023/09/03 03:48:07;;;;;;;;;;;;;;;13.79;51.88;96380.34;4971949;28;19965;-72
2023/09/03 03:50:32;;;;;;;;;;;;;;;13.76;51.45;96370.81;4975664;28;19960;-72
2023/09/03 03:52:58;;;;;;;;;;;;;;;13.72;51.46;96363.31;4981467;28;19968;-72
2023/09/03 03:55:23;;;;;;;;;;;;;;;13.65;51.42;96364.06;4976743;28;19964;-72
2023/09/03 03:57:48;;;;;;;;;;;;;;;13.63;51.87;96360.72;4975959;28;20414;-72
2023/09/03 04:00:13;;;;;;;;;;;;;;;13.55;52.59;96366.97;4975512;28;20352;-72
2023/09/03 04:02:39;;;;;;;;;;;;;;;13.55;51.94;96366.13;4973331;28;20004;-72
2023/09/03 04:05:04;;;;;;;;;;;;;;;13.49;52.63;96367.69;4976163;28;19954;-72
2023/09/03 04:07:29;;;;;;;;;;;;;;;13.44;52.55;96370.06;4975264;28;19967;-72
2023/09/03 04:09:55;;;;;;;;;;;;;;;13.44;52.84;96370.06;4974486;28;20349;-72
2023/09/03 04:12:20;;;;;;;;;;;;;;;13.43;52.13;96377.25;4975107;28;19997;-72
2023/09/03 04:14:46;;;;;;;;;;;;;;;13.41;52.29;96379.28;4975463;28;20007;-72
2023/09/03 04:17:11;;;;;;;;;;;;;;;13.39;52.04;96375.94;4975382;28;20362;-72
2023/09/03 04:19:36;;;;;;;;;;;;;;;13.34;52.10;96372.97;4963388;28;19942;-72
2023/09/03 04:22:01;;;;;;;;;;;;;;;13.29;51.55;96375.31;4977990;28;20473;-72
2023/09/03 04:24:26;;;;;;;;;;;;;;;13.21;51.39;96370.88;4974152;28;20059;-72
2023/09/03 04:26:52;;;;;;;;;;;;;;;13.13;52.16;96371.75;4975493;28;19983;-72
2023/09/03 04:29:17;;;;;;;;;;;;;;;13.09;52.68;96375.78;4975248;28;20082;-72
2023/09/03 04:31:42;;;;;;;;;;;;;;;13.01;51.80;96367.81;4974908;28;20445;-72
2023/09/03 04:34:08;;;;;;;;;;;;;;;12.97;52.20;96363.78;4974912;28;20664;-73
2023/09/03 04:36:34;;;;;;;;;;;;;;;12.93;52.27;96372.16;4974995;28;20347;-73
2023/09/03 04:38:59;;;;;;;;;;;;;;;12.87;52.19;96372.88;4974803;28;20009;-73
2023/09/03 04:41:24;;;;;;;;;;;;;;;12.83;52.13;96379.56;4980642;28;20066;-73
2023/09/03 04:43:49;;;;;;;;;;;;;;;12.76;52.25;96386.59;4974570;28;19933;-73
2023/09/03 04:46:15;;;;;;;;;;;;;;;12.69;52.82;96389.16;4975283;28;19941;-73
2023/09/03 04:48:40;;;;;;;;;;;;;;;12.66;53.39;96392.16;4967803;28;20015;-73
2023/09/03 04:51:06;;;;;;;;;;;;;;;12.62;53.02;96394.31;4973565;28;20048;-73
2023/09/03 04:53:31;;;;;;;;;;;;;;;12.58;53.01;96401.00;4977246;28;20305;-73
2023/09/03 04:55:56;;;;;;;;;;;;;;;12.58;53.76;96417.03;4975031;28;20035;-73
2023/09/03 04:58:22;;;;;;;;;;;;;;;12.59;53.24;96412.53;4973458;28;19936;-73
2023/09/03 05:00:47;;;;;;;;;;;;;;;12.58;53.70;96411.69;4974195;28;19954;-73
2023/09/03 05:03:12;;;;;;;;;;;;;;;12.57;53.73;96418.03;4975162;28;19987;-73
2023/09/03 05:05:41;;;;;;;;;;;;;;;12.57;53.74;96419.91;4974903;28;20148;-73
2023/09/03 05:08:08;;;;;;;;;;;;;;;12.59;53.19;96417.88;4972514;28;20083;-73
2023/09/03 05:10:33;;;;;;;;;;;;;;;12.63;54.27;96433.41;4975178;28;19932;-73
2023/09/03 05:12:58;;;;;;;;;;;;;;;12.73;53.84;96445.72;4974504;28;19956;-73
2023/09/03 05:15:24;;;;;;;;;;;;;;;12.77;52.49;96433.69;4974878;28;19995;-72
2023/09/03 05:17:49;;;;;;;;;;;;;;;12.83;53.30;96451.72;4973834;28;20286;-72
2023/09/03 05:20:14;;;;;;;;;;;;;;;12.87;53.14;96445.00;4972943;28;20354;-73
2023/09/03 05:22:39;;;;;;;;;;;;;;;12.95;52.90;96449.47;4976823;28;19959;-73
2023/09/03 05:25:05;;;;;;;;;;;;;;;13.02;52.88;96449.69;4974519;28;19999;-73
2023/09/03 05:27:30;;;;;;;;;;;;;;;13.04;53.03;96453.00;4972439;28;19991;-73
2023/09/03 05:29:55;;;;;;;;;;;;;;;13.10;52.44;96455.00;4973133;28;20120;-73
2023/09/03 05:32:21;;;;;;;;;;;;;;;13.20;52.54;96453.94;4974378;28;20017;-73
2023/09/03 05:34:46;;;;;;;;;;;;;;;13.24;51.94;96460.59;4974607;28;20093;-73
2023/09/03 05:37:12;;;;;;;;;;;;;;;13.27;51.96;96454.91;4973729;28;20010;-73
2023/09/03 05:39:37;;;;;;;;;;;;;;;13.36;52.46;96456.50;4970007;28;20423;-72
2023/09/03 05:42:02;;;;;;;;;;;;;;;13.40;51.72;96460.50;4982540;28;19936;-70
2023/09/03 05:44:28;;;;;;;;;;;;;;;13.49;51.76;96471.19;4974213;28;20439;-71
2023/09/03 05:46:53;;;;;;;;;;;;;;;13.60;51.71;96478.78;4971669;28;19964;-70
2023/09/03 05:49:18;;;;;;;;;;;;;;;13.67;51.59;96474.41;4966235;28;20185;-71
2023/09/03 05:51:43;;;;;;;;;;;;;;;13.74;52.12;96479.06;4973301;28;19967;-71
2023/09/03 05:54:09;;;;;;;;;;;;;;;13.69;53.38;96487.59;4980290;28;20466;-69
2023/09/03 05:56:34;;;;;;;;;;;;;;;13.77;53.61;96484.06;4974007;28;19961;-71
2023/09/03 05:59:05;;;;;;;;;;;;;;;13.82;52.53;96479.84;4972441;28;20343;-70
2023/09/03 06:01:30;;;;;;;;;;;;;;;14.00;53.55;96492.13;4973491;28;20161;-71
2023/09/03 06:03:55;;;;;;;;;;;;;;;14.19;53.79;96495.31;4976211;28;19960;-71
2023/09/03 06:06:21;;;;;;;;;;;;;;;14.37;52.13;96505.72;4980459;28;19956;-70
2023/09/03 06:08:46;;;;;;;;;;;;;;;14.54;52.19;96505.56;4973296;28;19972;-71
2023/09/03 06:11:11;;;;;;;;;;;;;;;14.67;52.48;96511.16;4973971;28;19930;-71
2023/09/03 06:13:37;;;;;;;;;;;;;;;14.80;50.65;96507.03;4972985;28;19947;-70
2023/09/03 06:16:02;;;;;;;;;;;;;;;14.96;50.17;96517.59;4973583;28;20008;-69
2023/09/03 06:18:27;;;;;;;;;;;;;;;15.08;49.63;96514.44;4973348;28;20529;-71
2023/09/03 06:20:53;;;;;;;;;;;;;;;15.22;50.53;96508.25;4974526;28;19929;-71
2023/09/03 06:23:19;;;;;;;;;;;;;;;15.24;50.81;96506.19;4975384;28;19926;-70
2023/09/03 06:25:44;;;;;;;;;;;;;;;15.12;53.29;96507.69;4973485;28;20086;-70
2023/09/03 06:28:09;;;;;;;;;;;;;;;14.91;52.07;96511.09;4972576;28;19971;-71
2023/09/03 06:30:35;;;;;;;;;;;;;;;15.09;53.72;96516.09;4966982;28;19926;-69
2023/09/03 06:33:00;;;;;;;;;;;;;;;15.33;51.31;96523.03;4974210;28;19952;-70
2023/09/03 06:35:25;;;;;;;;;;;;;;;15.40;51.51;96533.03;4977357;28;19930;-71
2023/09/03 06:37:50;;;;;;;;;;;;;;;15.71;51.20;96532.00;4977223;28;19922;-70
2023/09/03 06:40:16;;;;;;;;;;;;;;;15.87;49.51;96526.41;4968414;28;19957;-70
2023/09/03 06:42:41;;;;;;;;;;;;;;;15.91;50.85;96536.75;4967323;28;20450;-71
2023/09/03 06:45:07;;;;;;;;;;;;;;;15.70;51.06;96547.25;4977149;28;20446;-70
2023/09/03 06:47:32;;;;;;;;;;;;;;;15.53;49.37;96548.47;4972203;28;20001;-71
2023/09/03 06:49:57;;;;;;;;;;;;;;;15.62;51.38;96550.06;4977379;28;19922;-71
2023/09/03 06:52:23;;;;;;;;;;;;;;;14.60;53.97;96561.13;4977274;28;20491;-72
2023/09/03 06:54:48;;;;;;;;;;;;;;;14.54;53.68;96561.84;4972530;28;20454;-72
2023/09/03 06:57:14;;;;;;;;;;;;;;;14.24;54.43;96562.56;4976424;28;20000;-72
2023/09/03 06:59:40;;;;;;;;;;;;;;;15.06;52.52;96565.56;4975081;28;20050;-72
2023/09/03 07:02:06;;;;;;;;;;;;;;;15.34;52.96;96574.84;4976214;28;19932;-72
2023/09/03 07:04:31;;;;;;;;;;;;;;;14.87;51.24;96574.16;4976018;28;19925;-72
2023/09/03 07:06:58;;;;;;;;;;;;;;;15.42;53.33;96580.13;4975022;28;21677;-72
2023/09/03 07:09:27;;;;;;;;;;;;;;;15.27;53.50;96598.91;4975966;28;20017;-72
2023/09/03 07:11:52;;;;;;;;;;;;;;;15.44;53.14;96596.84;4976022;28;21039;-72
2023/09/03 07:14:17;;;;;;;;;;;;;;;15.69;51.82;96599.28;4976485;28;20008;-72
2023/09/03 07:16:43;;;;;;;;;;;;;;;15.80;49.78;96605.19;4975315;28;20394;-72
2023/09/03 07:19:08;;;;;;;;;;;;;;;15.75;52.37;96611.94;4975547;28;19957;-72
2023/09/03 07:21:33;;;;;;;;;;;;;;;16.28;49.65;96602.00;4976109;28;20168;-72
2023/09/03 07:23:59;;;;;;;;;;;;;;;16.07;51.21;96597.44;4975007;28;19926;-72
2023/09/03 07:26:24;;;;;;;;;;;;;;;16.02;50.86;96600.72;4976044;28;20158;-72
2023/09/03 07:28:49;;;;;;;;;;;;;;;16.32;48.77;96599.78;4975413;28;20005;-73
2023/09/03 07:31:14;;;;;;;;;;;;;;;16.33;49.45;96609.50;4974701;28;20020;-73
2023/09/03 07:33:40;;;;;;;;;;;;;;;16.62;48.16;96615.81;4975711;28;19962;-72
2023/09/03 07:36:11;;;;;;;;;;;;;;;16.58;49.34;96623.44;4974943;28;19937;-72
2023/09/03 07:38:39;;;;;;;;;;;;;;;16.67;50.43;96632.22;4976107;28;20228;-73
2023/09/03 07:41:04;;;;;;;;;;;;;;;16.96;49.12;96627.69;4975224;28;19928;-73
2023/09/03 07:43:30;;;;;;;;;;;;;;;17.01;48.90;96627.97;4975024;28;19917;-72
2023/09/03 07:45:55;;;;;;;;;;;;;;;17.59;48.55;96617.16;4975697;28;19964;-73
2023/09/03 07:48:20;;;;;;;;;;;;;;;18.03;45.33;96617.81;4971100;28;19957;-73
2023/09/03 07:50:46;;;;;;;;;;;;;;;18.40;46.25;96623.75;4975400;28;19922;-73
2023/09/03 07:53:11;;;;;;;;;;;;;;;18.76;45.24;96620.94;4984470;28;20370;-73
2023/09/03 07:55:36;;;;;;;;;;;;;;;18.92;44.41;96625.06;4977138;28;20345;-73
2023/09/03 07:58:02;;;;;;;;;;;;;;;19.04;42.95;96625.28;4974827;28;20050;-73
2023/09/03 08:00:27;;;;;;;;;;;;;;;18.88;43.47;96616.56;4973439;28;20320;-71
2023/09/03 08:02:52;;;;;;;;;;;;;;;19.28;43.44;96617.63;4977591;28;20075;-69
2023/09/03 08:05:17;;;;;;;;;;;;;;;19.39;41.41;96629.63;4980139;28;19933;-69
2023/09/03 08:07:43;;;;;;;;;;;;;;;19.59;42.14;96630.41;4976232;28;20230;-69
2023/09/03 08:10:08;;;;;;;;;;;;;;;19.59;41.51;96625.00;4976703;28;20362;-69
2023/09/03 08:12:33;;;;;;;;;;;;;;;19.28;42.21;96625.72;4976191;28;19922;-69
2023/09/03 08:14:59;;;;;;;;;;;;;;;19.12;42.96;96624.22;4972259;28;19980;-68
2023/09/03 08:17:26;;;;;;;;;;;;;;;19.63;41.20;96630.00;4976136;28;19957;-69
2023/09/03 08:19:51;;;;;;;;;;;;;;;19.43;40.15;96634.41;4974937;28;20450;-69
2023/09/03 08:22:16;;;;;;;;;;;;;;;19.88;40.23;96634.72;4979679;28;19921;-69
2023/09/03 08:24:41;;;;;;;;;;;;;;;20.33;38.67;96633.94;4974147;28;20047;-70
2023/09/03 08:27:07;;;;;;;;;;;;;;;20.62;37.59;96637.06;4975545;28;19968;-68
2023/09/03 08:29:32;;;;;;;;;;;;;;;21.03;37.75;96636.81;4975381;28;19996;-69
2023/09/03 08:31:57;;;;;;;;;;;;;;;20.93;35.15;96631.88;4974836;28;20268;-69
2023/09/03 08:34:22;;;;;;;;;;;;;;;21.07;36.96;96636.16;4973991;28;19934;-68
2023/09/03 08:36:48;;;;;;;;;;;;;;;21.67;35.65;96642.06;4974629;28;19960;-69
2023/09/03 08:39:13;;;;;;;;;;;;;;;21.95;34.40;96631.78;4973788;28;19976;-68
2023/09/03 08:41:39;;;;;;;;;;;;;;;21.57;34.17;96636.34;4983350;28;20347;-67
2023/09/03 08:44:05;;;;;;;;;;;;;;;21.56;34.62;96631.97;4974975;28;20353;-70
2023/09/03 08:46:30;;;;;;;;;;;;;;;21.69;34.60;96652.69;4974503;28;19918;-70
2023/09/03 08:48:55;;;;;;;;;;;;;;;21.64;34.60;96645.22;4965979;28;20370;-68
2023/09/03 08:51:21;;;;;;;;;;;;;;;21.90;34.86;96637.88;4975840;28;19918;-68
2023/09/03 08:53:46;;;;;;;;;;;;;;;22.05;34.84;96640.22;4980263;28;19921;-68
2023/09/03 08:56:11;;;;;;;;;;;;;;;22.23;35.04;96636.66;4973151;28;20744;-67
2023/09/03 08:58:36;;;;;;;;;;;;;;;22.27;33.35;96643.25;4975232;28;19991;-69
2023/09/03 09:01:02;;;;;;;;;;;;;;;22.63;33.23;96642.59;4972079;28;19961;-68
2023/09/03 09:03:28;;;;;;;;;;;;;;;22.90;33.01;96639.47;4975323;28;19922;-68
2023/09/03 09:05:53;;;;;;;;;;;;;;;22.94;32.86;96643.38;4980984;28;20020;-68
2023/09/03 09:08:18;;;;;;;;;;;;;;;23.00;34.11;96647.88;4974234;28;20303;-68
2023/09/03 09:10:44;;;;;;;;;;;;;;;23.12;32.19;96645.19;4974563;28;19964;-70
2023/09/03 09:13:10;;;;;;;;;;;;;;;23.14;32.16;96647.69;4974013;28;19964;-71
2023/09/03 09:15:36;;;;;;;;;;;;;;;23.22;32.44;96639.22;4975095;28;19961;-71
2023/09/03 09:18:01;;;;;;;;;;;;;;;23.26;32.18;96645.84;4971349;28;20469;-71
2023/09/03 09:20:26;;;;;;;;;;;;;;;23.50;33.05;96639.56;4975033;28;19926;-71
2023/09/03 09:22:51;;;;;;;;;;;;;;;23.71;32.04;96648.16;4977334;28;19945;-71
2023/09/03 09:25:17;;;;;;;;;;;;;;;23.86;30.86;96634.94;4974917;28;19933;-71
2023/09/03 09:27:42;;;;;;;;;;;;;;;24.15;30.77;96635.00;4975104;28;20184;-71
2023/09/03 09:30:19;;;;;;;;;;;;;;;24.19;30.23;96630.72;4975021;28;20019;-71
2023/09/03 09:32:45;;;;;;;;;;;;;;;24.01;29.51;96628.16;4974172;28;20204;-71
2023/09/03 09:35:11;;;;;;;;;;;;;;;23.60;30.72;96631.66;4974248;28;20029;-71
2023/09/03 09:37:37;;;;;;;;;;;;;;;23.72;29.49;96638.97;4970062;28;20524;-71
2023/09/03 09:40:03;;;;;;;;;;;;;;;23.64;29.23;96640.13;4971604;28;20165;-71
2023/09/03 09:42:29;;;;;;;;;;;;;;;23.21;30.68;96636.75;4983881;28;20406;-71
2023/09/03 09:44:54;;;;;;;;;;;;;;;23.10;30.93;96631.03;4973604;28;19933;-71
2023/09/03 09:47:20;;;;;;;;;;;;;;;23.74;27.10;96642.28;4971807;28;19921;-71
2023/09/03 09:49:48;;;;;;;;;;;;;;;23.76;26.58;96637.44;4974703;28;20387;-71
2023/09/03 09:52:14;;;;;;;;;;;;;;;23.69;26.99;96638.34;4973997;28;20268;-71
2023/09/03 09:54:42;;;;;;;;;;;;;;;23.56;27.45;96644.06;4978424;28;19984;-71
2023/09/03 09:57:11;;;;;;;;;;;;;;;23.27;27.94;96652.06;4971659;28;19932;-71
2023/09/03 09:59:36;;;;;;;;;;;;;;;23.57;27.00;96651.13;4969822;28;19926;-70
2023/09/03 10:02:11;;;;;;;;;;;;;;;23.90;27.84;96657.03;4973350;28;19988;-71
2023/09/03 10:04:38;;;;;;;;;;;;;;;24.08;28.83;96656.06;4973713;28;19925;-71
2023/09/03 10:07:04;;;;;;;;;;;;;;;24.46;27.48;96656.53;4975239;28;19999;-71
2023/09/03 10:09:29;;;;;;;;;;;;;;;24.62;28.08;96652.22;4973876;28;20048;-71
2023/09/03 10:11:54;;;;;;;;;;;;;;;24.62;27.81;96656.81;4970933;28;19969;-71
2023/09/03 10:14:19;;;;;;;;;;;;;;;24.68;27.71;96661.31;4972339;28;19965;-70
2023/09/03 10:16:45;;;;;;;;;;;;;;;24.83;27.18;96650.69;4974257;28;20176;-71
2023/09/03 10:19:10;;;;;;;;;;;;;;;25.01;27.63;96656.19;4974712;28;19964;-71
2023/09/03 10:21:35;;;;;;;;;;;;;;;25.27;28.06;96653.84;4973106;28;20083;-71
2023/09/03 10:24:03;;;;;;;;;;;;;;;25.09;25.03;96650.31;4972141;28;20270;-70
2023/09/03 10:26:30;;;;;;;;;;;;;;;24.91;27.08;96654.13;4970103;28;20402;-70
2023/09/03 10:28:57;;;;;;;;;;;;;;;25.04;24.71;96650.22;4972537;28;19929;-71
2023/09/03 10:31:22;;;;;;;;;;;;;;;25.02;25.31;96655.09;4971690;28;19921;-71
2023/09/03 10:33:47;;;;;;;;;;;;;;;24.86;27.49;96654.81;4972963;28;20282;-70
2023/09/03 10:36:13;;;;;;;;;;;;;;;24.00;27.28;96653.72;4972035;28;20040;-70
2023/09/03 10:38:38;;;;;;;;;;;;;;;23.98;26.64;96661.28;4972072;28;19953;-70
2023/09/03 10:41:21;;;;;;;;;;;;;;;24.25;26.35;96655.28;4957841;28;20024;-70
2023/09/03 10:43:46;;;;;;;;;;;;;;;23.91;29.04;96656.81;4972316;28;19926;-70
2023/09/03 10:46:11;;;;;;;;;;;;;;;24.48;28.75;96656.28;4966603;28;19930;-70
2023/09/03 10:48:37;;;;;;;;;;;;;;;24.51;27.36;96653.09;4973621;28;19925;-70
2023/09/03 10:51:02;;;;;;;;;;;;;;;24.60;27.86;96653.53;4958582;28;19968;-70
2023/09/03 10:53:37;;;;;;;;;;;;;;;25.19;26.15;96652.38;4977226;28;19925;-70
2023/09/03 10:56:06;;;;;;;;;;;;;;;24.31;25.57;96649.69;4973462;28;20385;-70
2023/09/03 10:58:31;;;;;;;;;;;;;;;24.52;27.16;96654.75;4967915;28;20018;-71
2023/09/03 11:01:15;;;;;;;;;;;;;;;24.92;26.73;96658.47;4972734;28;20021;-70
2023/09/03 11:03:47;;;;;;;;;;;;;;;24.83;26.64;96655.28;4972371;28;20436;-70
2023/09/03 11:06:18;;;;;;;;;;;;;;;25.16;25.75;96655.59;4974927;28;20352;-71
2023/09/03 11:08:44;;;;;;;;;;;;;;;25.35;26.33;96647.97;4974080;28;20685;-71
2023/09/03 11:11:10;;;;;;;;;;;;;;;25.58;25.78;96643.44;4973991;28;19929;-71
2023/09/03 11:13:35;;;;;;;;;;;;;;;25.87;26.08;96646.03;4972665;28;19941;-71
2023/09/03 11:16:00;;;;;;;;;;;;;;;25.16;26.39;96648.25;4973736;28;19934;-71
2023/09/03 11:18:26;;;;;;;;;;;;;;;25.51;25.95;96648.25;4973916;28;19976;-71
2023/09/03 11:20:51;;;;;;;;;;;;;;;25.43;26.30;96647.56;4980769;28;19972;-71
2023/09/03 11:23:17;;;;;;;;;;;;;;;25.33;26.61;96641.97;4982395;28;19953;-70
2023/09/03 11:25:42;;;;;;;;;;;;;;;25.15;27.65;96645.78;4975417;28;19992;-71
2023/09/03 11:28:08;;;;;;;;;;;;;;;24.98;26.85;96646.59;4977533;28;19969;-71
2023/09/03 11:30:34;;;;;;;;;;;;;;;25.91;24.30;96654.50;4970108;28;20103;-70
2023/09/03 11:32:59;;;;;;;;;;;;;;;26.23;23.76;96643.75;4976780;28;20289;-69
2023/09/03 11:35:24;;;;;;;;;;;;;;;26.11;26.50;96634.88;4975836;28;19925;-70
2023/09/03 11:37:49;;;;;;;;;;;;;;;25.76;26.80;96644.25;4971985;28;20001;-69
2023/09/03 11:40:15;;;;;;;;;;;;;;;25.96;25.12;96635.47;4974189;28;19925;-69
2023/09/03 11:42:41;;;;;;;;;;;;;;;26.45;24.44;96631.97;4976824;28;19968;-70
2023/09/03 11:45:08;;;;;;;;;;;;;;;26.73;25.86;96629.28;4975620;28;19922;-70
2023/09/03 11:47:39;;;;;;;;;;;;;;;26.33;25.70;96629.41;4975733;28;19957;-69
2023/09/03 11:50:11;;;;;;;;;;;;;;;26.48;26.48;96626.00;4971996;28;20520;-70
2023/09/03 11:52:36;;;;;;;;;;;;;;;26.64;25.24;96620.72;4973673;28;20655;-70
2023/09/03 11:55:03;;;;;;;;;;;;;;;26.83;25.58;96623.91;4975472;28;20176;-70
2023/09/03 11:57:30;;;;;;;;;;;;;;;27.24;25.51;96620.72;4976225;28;20383;-70
2023/09/03 11:59:55;;;;;;;;;;;;;;;27.06;25.42;96621.09;4971758;28;19952;-69
2023/09/03 12:02:20;;;;;;;;;;;;;;;26.87;24.81;96621.47;4974139;28;20298;-70
2023/09/03 12:04:46;;;;;;;;;;;;;;;26.56;26.17;96624.75;4980096;28;20084;-70
2023/09/03 12:07:14;;;;;;;;;;;;;;;27.23;24.17;96618.25;4973312;28;19926;-69
2023/09/03 12:09:41;;;;;;;;;;;;;;;26.45;25.08;96618.31;4974433;28;19926;-70
2023/09/03 12:12:07;;;;;;;;;;;;;;;26.64;25.54;96623.44;4976887;28;19932;-69
2023/09/03 12:14:32;;;;;;;;;;;;;;;26.36;24.82;96626.16;4974497;28;19921;-69
2023/09/03 12:16:57;;;;;;;;;;;;;;;26.47;23.98;96627.09;4972920;28;20135;-69
2023/09/03 12:19:23;;;;;;;;;;;;;;;27.13;23.33;96627.19;4975406;28;19936;-70
2023/09/03 12:21:51;;;;;;;;;;;;;;;26.47;24.41;96628.97;4985305;28;19967;-70
2023/09/03 12:24:16;;;;;;;;;;;;;;;26.78;24.02;96615.66;4976133;28;20188;-70
2023/09/03 12:26:42;;;;;;;;;;;;;;;27.20;23.40;96622.31;4974655;28;19922;-70
2023/09/03 12:29:20;;;;;;;;;;;;;;;27.13;24.18;96622.53;4974522;28;19925;-70
2023/09/03 12:31:45;;;;;;;;;;;;;;;27.88;23.73;96630.94;4968197;28;20012;-70
2023/09/03 12:34:10;;;;;;;;;;;;;;;27.54;22.84;96626.63;4973135;28;20431;-70
2023/09/03 12:36:55;;;;;;;;;;;;;;;28.22;22.18;96625.09;4975885;28;19987;-69
2023/09/03 12:39:27;;;;;;;;;;;;;;;28.08;22.23;96624.75;4967237;28;19926;-70
2023/09/03 12:41:52;;;;;;;;;;;;;;;27.28;23.65;96631.09;4971170;28;19926;-70